Tiempo atmosférico en la estación meteorológica de Villarrobledo, Albacete (718 m.)



Fecha
DESCASC
Temp. máxima en grados centígrados (hora)
DESCASC
Temp. mínima en grados centígrados (hora)
DESCASC
Temp. media en grados centígrados
DESCASC
Racha de viento máxima en m/sg (hora)
DESCASC
Velocidad máxima media en intervalos de 10 minutos(hora)
DESCASC
Precipitaciones diarias en mm
DESCASC
Precipitaciones de 00:00 a 06:00 en mm
DESCASC
Precipitaciones de 06:00 a 12:00 en mm
DESCASC
Precipitaciones de 12:00 a 18:00 en mm
DESCASC
Precipitaciones de 18:00 a 24:00 en mm
DESCASC
19-09-2019 29.2 (14:00) 15 (08:00) 22.1 8.33 (16:20) 5 (16:40) 0 0 0 0 0
18-09-2019 30.1 (15:30) 12.8 (08:00) 21.5 5.83 (17:10) 3.33 (17:10) 0 0 0 0 0
17-09-2019 29.5 (16:00) 15.7 (00:00) 22.6 18.89 (18:00) 10.56 (18:00) 14 0 0 2.8 11.2
16-09-2019 28.5 (16:40) 16.5 (00:00) 22.5 5.56 (02:30) 2.5 (18:50) 0 0 0 0 0
15-09-2019 24.1 (16:20) 17.3 (00:00) 20.7 12.22 (19:50) 6.11 (19:50) 20.2 0 0 0 20.2
14-09-2019 21.5 (15:40) 14.2 (00:00) 17.8 16.94 (00:30) 9.72 (00:50) 12.2 1.2 8.2 2.8 0
13-09-2019 19.3 (14:30) 13.9 (00:00) 16.6 13.06 (23:20) 7.5 (19:40) 9 0 6 1.8 1.2
12-09-2019 23.5 (18:40) 13.2 (00:00) 18.3 17.5 (11:50) 11.39 (12:30) 0.2 0 0.2 0 0
11-09-2019 25.2 (15:10) 12.7 (00:00) 19 14.17 (16:10) 9.17 (14:10) 0 0 0 0 0
10-09-2019 24.7 (15:20) 13.3 (23:59) 19 13.89 (19:40) 8.06 (18:50) 0 0 0 0 0
09-09-2019 30.2 (17:00) 15.6 (07:30) 22.9 13.89 (18:10) 8.06 (17:30) 0 0 0 0 0
08-09-2019 31.4 (17:20) 15.6 (00:00) 23.5 8.33 (03:10) 4.72 (21:00) 0 0 0 0 0
07-09-2019 32.2 (16:50) 17.1 (00:00) 24.7 9.44 (01:10) 5.83 (22:00) 0 0 0 0 0
06-09-2019 33.2 (15:40) 16.9 (00:00) 25.1 9.17 (01:40) 6.39 (01:40) 0 0 0 0 0
05-09-2019 33.5 (17:10) 18.1 (00:00) 25.8 10 (09:50) 6.39 (10:00) 0 0 0 0 0
04-09-2019 36.3 (16:10) 17.9 (00:00) 27.1 9.44 (17:50) 4.72 (17:20) 0 0 0 0 0
03-09-2019 37 (17:00) 17.3 (00:00) 27.1 7.78 (03:40) 3.89 (03:40) 0 0 0 0 0
02-09-2019 32.5 (15:10) 18.9 (00:00) 25.7 10.28 (07:10) 6.11 (17:10) 0 0 0 0 0
01-09-2019 37.5 (17:40) 16.7 (00:00) 27.1 7.78 (16:00) 4.17 (16:00) 0 0 0 0 0
31-08-2019 37.1 (17:30) 15.7 (00:00) 26.4 5 (17:10) 3.33 (17:30) 0 0 0 0 0
30-08-2019 37.5 (17:20) 17.8 (00:00) 27.6 13.61 (17:50) 6.67 (20:00) 0 0 0 0 0
29-08-2019 35.4 (19:00) 16.3 (00:00) 25.9 6.39 (23:59) 3.89 (10:10) 0 0 0 0 0
28-08-2019 34.3 (17:40) 14.4 (00:00) 24.3 6.11 (18:00) 3.33 (18:00) 0 0 0 0 0
27-08-2019 30.3 (16:50) 13.7 (00:00) 22 8.89 (00:10) 5.28 (02:20) 0.4 0.4 0 0 0
26-08-2019 28.3 (17:20) 16.9 (00:00) 22.6 15.56 (19:20) 7.78 (15:00) 7.4 0 1 0 6.4
25-08-2019 32.3 (16:30) 16.5 (00:00) 24.4 10.83 (22:00) 6.39 (22:10) 0 0 0 0 0
24-08-2019 35 (17:20) 14.8 (00:00) 24.9 7.5 (17:00) 3.89 (11:50) 0 0 0 0 0
23-08-2019 32.8 (16:20) 15.1 (00:00) 23.9 8.89 (12:50) 5.83 (15:40) 0 0 0 0 0
22-08-2019 33.2 (16:50) 13.8 (00:00) 23.5 7.22 (15:50) 4.17 (15:50) 0 0 0 0 0
21-08-2019 24.2 (12:00) 19 (00:00) 21.6 11.67 (00:10) 5.83 (13:00) 0 0 0 0 0

Gráficas

Temp. máximas Temp. mínimas Temp. medias Precipitaciones Rachas de viento máximas Velocidades máximas media en intervalos de 10 minutos

Datos horarios

Fecha y hora oficial Temperatura (ºC) Velocidad del viento (km/h) Dirección del viento Racha (km/h) Dirección de racha Precipitación (mm) Presión (hPa) Tendencia (hPa) Humedad (%)
2019-09-19 23:00:00 18.6 11 Nordeste 17 Nordeste 0 -- -- 76
2019-09-19 22:00:00 19.9 5 Este 16 Este 0 -- -- 70
2019-09-19 21:00:00 21.7 5 Este 14 Sudeste 0 -- -- 60
2019-09-19 20:00:00 23.9 4 Este 26 Sudeste 0 -- -- 51
2019-09-19 19:00:00 26.2 17 Sudeste 27 Este 0 -- -- 45
2019-09-19 18:00:00 27.9 8 Este 23 Este 0 -- -- 39
2019-09-19 17:00:00 25.8 10 Este 30 Nordeste 0 -- -- 48
2019-09-19 16:00:00 26.7 16 Este 26 Sudeste 0 -- -- 45
2019-09-19 15:00:00 28.7 11 Nordeste 18 Nordeste 0 -- -- 43
2019-09-19 14:00:00 29.2 8 Nordeste 19 Nordeste 0 -- -- 43
2019-09-19 13:00:00 27.2 8 Nordeste 14 Nordeste 0 -- -- 47
2019-09-19 12:00:00 25.9 9 Nordeste 15 Nordeste 0 -- -- 54
2019-09-19 11:00:00 22.4 9 Nordeste 17 Nordeste 0 -- -- 67
2019-09-19 10:00:00 19.4 9 Nordeste 15 Este 0 -- -- 76
2019-09-19 09:00:00 15.9 7 Nordeste 13 Este 0 -- -- 86
2019-09-19 08:00:00 15 6 Nordeste 12 Nordeste 0 -- -- 87
2019-09-19 07:00:00 15.4 6 Nordeste 11 Este 0 -- -- 88
2019-09-19 06:00:00 15.6 5 Nordeste 11 Este 0 -- -- 89
2019-09-19 05:00:00 16.4 8 Nordeste 13 Este 0 -- -- 87
2019-09-19 04:00:00 16.7 7 Este 10 Este 0 -- -- 87
2019-09-19 03:00:00 16.8 5 Nordeste 8 Nordeste 0 -- -- 85
2019-09-19 02:00:00 17.4 8 Nordeste 18 Este 0 -- -- 80
2019-09-19 01:00:00 17.9 3 Sudeste 9 Sudeste 0 -- -- 77
2019-09-19 00:00:00 18.5 4 Sur 9 Sur 0 -- -- 77
2019-09-18 23:00:00 18.9 0 Calma 4 Sur 0 -- -- 77
2019-09-18 22:00:00 20.4 0 Calma 5 Sur 0 -- -- 70
2019-09-18 21:00:00 21.3 0 Calma 5 Sudoeste 0 -- -- 61
2019-09-18 20:00:00 24.9 4 Oeste 13 Oeste 0 -- -- 48
2019-09-18 19:00:00 27.1 10 Oeste 19 Oeste 0 -- -- 41
2019-09-18 18:00:00 28 8 Oeste 21 Oeste 0 -- -- 39
2019-09-18 17:00:00 28.2 10 Oeste 17 Noroeste 0 -- -- 38
2019-09-18 16:00:00 29.1 9 Oeste 18 Oeste 0 -- -- 40
2019-09-18 15:00:00 28.4 6 Oeste 16 Oeste 0 -- -- 43
2019-09-18 14:00:00 27 6 Oeste 14 Sudoeste 0 -- -- 49
2019-09-18 13:00:00 25.2 5 Sudoeste 11 Oeste 0 -- -- 53
2019-09-18 12:00:00 24.6 5 Oeste 10 Norte 0 -- -- 52
2019-09-18 11:00:00 21.7 3 Sur 7 Nordeste 0 -- -- 63
2019-09-18 10:00:00 20.4 4 Norte 6 Este 0 -- -- 67
2019-09-18 09:00:00 14.2 2 Este 8 Este 0 -- -- 90
2019-09-18 08:00:00 12.8 0 Calma 7 Sudeste 0 -- -- 90
2019-09-18 07:00:00 13.2 3 Sudeste 8 Sudeste 0 -- -- 90
2019-09-18 06:00:00 13.3 3 Sudeste 10 Sudeste 0 -- -- 90
2019-09-18 05:00:00 13.7 6 Sudeste 9 Sudeste 0 -- -- 89
2019-09-18 04:00:00 14.3 0 Calma 6 Sudeste 0 -- -- 89
2019-09-18 03:00:00 14.8 0 Calma 8 Este 0 -- -- 86
2019-09-18 02:00:00 15.6 4 Norte 20 Noroeste 0 -- -- 85
2019-09-18 01:00:00 15.7 10 Noroeste 20 Noroeste 0 -- -- 87
2019-09-18 00:00:00 16.2 3 Sudeste 9 Sudeste 0 -- -- 77
2019-09-17 23:00:00 16.7 4 Sudeste 12 Este 0 -- -- 78
2019-09-17 22:00:00 16.6 5 Sudeste 14 Este 0 -- -- 85
2019-09-17 21:00:00 16.6 9 Este 25 Este 0 -- -- 92
2019-09-15 18:00:00 -- -- -- -- -- -- -- -- --
2019-09-15 17:00:00 -- -- -- -- -- -- -- -- --
2019-09-15 16:00:00 -- -- -- -- -- -- -- -- --
2019-09-15 15:00:00 23.8 18 Este 37 Nordeste 0 -- -- 67
2019-09-15 14:00:00 21.4 15 Este 31 Nordeste 0 -- -- 74
2019-09-15 13:00:00 21.5 14 Este 35 Este 0 -- -- 75
2019-09-15 12:00:00 20.6 17 Este 34 Sudeste 0 -- -- 79
2019-09-15 11:00:00 19.6 13 Este 28 Este 0 -- -- 82
2019-09-15 10:00:00 18.4 13 Este 30 Este 0 -- -- 86
2019-09-15 09:00:00 17.6 11 Este 28 Este 0 -- -- 87
2019-09-15 08:00:00 17.3 8 Este 22 Nordeste 0 -- -- 88
2019-09-15 07:00:00 17.5 8 Este 23 Este 0 -- -- 88
2019-09-15 06:00:00 17.6 9 Este 23 Este 0 -- -- 88
2019-09-15 05:00:00 17.7 9 Este 28 Nordeste 0 -- -- 88
2019-09-15 04:00:00 17.7 13 Este 32 Este 0 -- -- 86
2019-09-15 03:00:00 17.8 11 Este 33 Este 0 -- -- 84
2019-09-15 02:00:00 17.7 12 Este 33 Este 0 -- -- 83
2019-09-15 01:00:00 17.8 14 Este 37 Este 0 -- -- 85
2019-09-15 00:00:00 18 15 Este 31 Este 0 -- -- 83
2019-09-14 23:00:00 18.2 13 Este 27 Nordeste 0 -- -- 81
2019-09-14 22:00:00 18.7 11 Este 32 Nordeste 0 -- -- 79
2019-09-14 21:00:00 19.2 14 Este 28 Este 0 -- -- 77
2019-09-14 20:00:00 19.8 8 Este 24 Este 0 -- -- 74
2019-09-14 19:00:00 20.2 14 Este 32 Este 0 -- -- 71
2019-09-14 18:00:00 20.3 13 Este 35 Este 0 -- -- 67
2019-09-14 17:00:00 20.8 19 Este 35 Este 0 -- -- 65
2019-09-14 16:00:00 21.1 12 Este 31 Nordeste 0 -- -- 64
2019-09-14 15:00:00 21.1 12 Este 30 Este 0 -- -- 65
2019-09-14 14:00:00 19.6 23 Nordeste 44 Este 0 -- -- 68
2019-09-14 13:00:00 17.1 18 Nordeste 37 Nordeste 2.8 -- -- 91
2019-09-14 12:00:00 14.4 4 Sur 34 Sudoeste 6 -- -- 90
2019-09-14 11:00:00 15.1 13 Sudoeste 22 Sudoeste 0.8 -- -- 88
2019-09-14 10:00:00 14.7 12 Este 28 Este 1.4 -- -- 88
2019-09-14 09:00:00 14.9 14 Sudeste 30 Sudeste 0 -- -- 83
2019-09-14 08:00:00 14.8 13 Este 34 Este 0 -- -- 82
2019-09-14 07:00:00 14.7 10 Este 30 Este 0 -- -- 84
2019-09-14 06:00:00 -- -- -- -- -- -- -- -- --
2019-09-14 05:00:00 -- -- -- -- -- -- -- -- --
2019-09-14 04:00:00 -- -- -- -- -- -- -- -- --
2019-09-14 03:00:00 16 12 Este 32 Este 0 -- -- 86
2019-09-14 02:00:00 16.3 24 Este 45 Nordeste 0 -- -- 85
2019-09-14 01:00:00 15.9 28 Nordeste 61 Este 1.2 -- -- 86
2019-09-14 00:00:00 16.5 20 Este 47 Nordeste 0.2 -- -- 79
2019-09-13 23:00:00 17.2 19 Este 37 Sudeste 0.2 -- -- 87
2019-09-13 22:00:00 17.2 10 Este 39 Este 0 -- -- 88
2019-09-13 21:00:00 17.1 13 Este 32 Este 0 -- -- 86
2019-09-13 20:00:00 17.4 15 Este 46 Este 0 -- -- 84
2019-09-13 19:00:00 17.1 20 Nordeste 36 Nordeste 0.8 -- -- 88
2019-09-13 18:00:00 18 19 Este 40 Nordeste 0 -- -- 82
2019-09-13 17:00:00 17.5 20 Nordeste 43 Nordeste 0 -- -- 80
2019-09-13 16:00:00 18.2 18 Nordeste 36 Nordeste 0 -- -- 72
2019-09-13 15:00:00 18.3 22 Nordeste 38 Nordeste 0 -- -- 72
2019-09-13 14:00:00 17 18 Nordeste 35 Nordeste 0 -- -- 82
2019-09-13 13:00:00 14.2 19 Nordeste 40 Nordeste 1.8 -- -- 89
2019-09-13 12:00:00 13.9 25 Nordeste 39 Nordeste 4.2 -- -- 87
2019-09-13 11:00:00 14.8 19 Este 32 Este 1.8 -- -- 79
2019-09-13 10:00:00 16.6 3 Nordeste 6 Nordeste 0 -- -- 60
2019-09-13 09:00:00 14.8 2 Norte 6 Nordeste 0 -- -- 67
2019-09-13 08:00:00 14.7 3 Este 11 Norte 0 -- -- 67
2019-09-13 07:00:00 15.2 5 Norte 11 Norte 0 -- -- 67
2019-09-13 06:00:00 15 4 Nordeste 6 Norte 0 -- -- 73
2019-09-13 05:00:00 15.3 2 Nordeste 8 Nordeste 0 -- -- 73
2019-09-13 04:00:00 15.6 4 Nordeste 12 Nordeste 0 -- -- 70
2019-09-13 03:00:00 16.2 4 Este 18 Nordeste 0 -- -- 68
2019-09-13 02:00:00 16.8 13 Nordeste 32 Nordeste 0 -- -- 66
2019-09-13 01:00:00 16.9 14 Nordeste 35 Este 0 -- -- 68
2019-09-13 00:00:00 17.8 14 Este 32 Sudeste 0 -- -- 61
2019-09-12 23:00:00 17.9 15 Este 28 Este 0 -- -- 53
2019-09-12 22:00:00 18.7 15 Nordeste 27 Nordeste 0 -- -- 52
2019-09-12 21:00:00 19.6 13 Este 33 Nordeste 0 -- -- 48
2019-09-12 20:00:00 21.3 16 Este 50 Este 0 -- -- 43
2019-09-12 19:00:00 23.3 28 Nordeste 55 Nordeste 0 -- -- 43
2019-09-12 18:00:00 23.2 36 Nordeste 49 Nordeste 0 -- -- 43
2019-09-12 17:00:00 21.9 24 Este 47 Nordeste 0 -- -- 54
2019-09-12 16:00:00 22.4 18 Este 45 Este 0 -- -- 52
2019-09-12 15:00:00 22.7 25 Nordeste 48 Este 0 -- -- 52
2019-09-12 14:00:00 19.9 30 Nordeste 54 Nordeste 0 -- -- 60
2019-09-12 13:00:00 20.2 34 Nordeste 63 Nordeste 0 -- -- 58
2019-09-12 12:00:00 20.1 36 Nordeste 63 Nordeste 0 -- -- 61
2019-09-12 11:00:00 18.8 31 Nordeste 52 Este 0 -- -- 60
2019-09-12 10:00:00 17 15 Este 29 Este 0.2 -- -- 67
2019-09-12 09:00:00 16.6 13 Nordeste 28 Nordeste 0 -- -- 68
2019-09-12 08:00:00 16 19 Nordeste 36 Nordeste 0 -- -- 69
2019-09-12 07:00:00 15.4 18 Nordeste 30 Nordeste 0 -- -- 67
2019-09-12 06:00:00 15.7 19 Nordeste 35 Nordeste 0 -- -- 63
2019-09-12 05:00:00 15.5 13 Nordeste 23 Norte 0 -- -- 65
2019-09-12 04:00:00 14.3 8 Norte 14 Norte 0 -- -- 75
2019-09-12 03:00:00 13.7 4 Norte 9 Norte 0 -- -- 79
2019-09-12 02:00:00 13.5 4 Norte 8 Norte 0 -- -- 76
2019-09-12 01:00:00 13.2 0 Calma 12 Este 0 -- -- 76
2019-09-12 00:00:00 14.3 8 Nordeste 15 Nordeste 0 -- -- 72
2019-09-11 23:00:00 14.7 6 Nordeste 24 Nordeste 0 -- -- 69
2019-09-11 22:00:00 15.9 16 Nordeste 33 Nordeste 0 -- -- 62
2019-09-11 21:00:00 17 21 Nordeste 35 Nordeste 0 -- -- 58
2019-09-11 20:00:00 17.4 22 Nordeste 36 Nordeste 0 -- -- 58
2019-09-11 19:00:00 17.1 10 Este 36 Este 0 -- -- 59
2019-09-11 18:00:00 18.4 20 Este 43 Nordeste 0 -- -- 54
2019-09-11 17:00:00 21.3 14 Este 51 Este 0 -- -- 43
2019-09-11 16:00:00 21.9 27 Nordeste 45 Nordeste 0 -- -- 36
2019-09-11 15:00:00 24.4 29 Nordeste 48 Nordeste 0 -- -- 32
2019-09-11 14:00:00 23.8 33 Nordeste 51 Nordeste 0 -- -- 32
2019-09-11 13:00:00 23 16 Nordeste 35 Norte 0 -- -- 32
2019-09-11 12:00:00 21.7 21 Norte 40 Norte 0 -- -- 35
2019-09-11 11:00:00 17.8 20 Norte 43 Noroeste 0 -- -- 45
2019-09-11 10:00:00 15.9 18 Norte 39 Norte 0 -- -- 52
2019-09-11 09:00:00 14.5 17 Noroeste 30 Norte 0 -- -- 56
2019-09-11 08:00:00 14.1 14 Norte 35 Noroeste 0 -- -- 55
2019-09-11 07:00:00 13.5 12 Noroeste 29 Norte 0 -- -- 58
2019-09-11 06:00:00 13.3 15 Noroeste 28 Noroeste 0 -- -- 58
2019-09-11 05:00:00 13.4 13 Noroeste 28 Noroeste 0 -- -- 56
2019-09-11 04:00:00 13.6 17 Noroeste 31 Noroeste 0 -- -- 53
2019-09-11 03:00:00 13.6 15 Noroeste 28 Oeste 0 -- -- 53
2019-09-11 02:00:00 13.4 14 Noroeste 25 Noroeste 0 -- -- 54
2019-09-11 01:00:00 12.7 15 Noroeste 28 Noroeste 0 -- -- 58
2019-09-11 00:00:00 13.3 13 Noroeste 26 Oeste 0 -- -- 56
2019-09-10 23:00:00 13.5 11 Noroeste 33 Noroeste 0 -- -- 54
2019-09-10 22:00:00 15 18 Noroeste 37 Noroeste 0 -- -- 47
2019-09-10 21:00:00 15.3 21 Noroeste 47 Noroeste 0 -- -- 45
2019-09-10 20:00:00 17.5 25 Noroeste 50 Noroeste 0 -- -- 37
2019-09-10 19:00:00 20.3 27 Noroeste 49 Noroeste 0 -- -- 28
2019-09-10 18:00:00 21.9 24 Noroeste 46 Noroeste 0 -- -- 24
2019-09-10 17:00:00 23.1 24 Noroeste 47 Noroeste 0 -- -- 22
2019-09-10 16:00:00 24.7 25 Noroeste 45 Noroeste 0 -- -- 21
2019-09-10 15:00:00 24.2 23 Noroeste 46 Noroeste 0 -- -- 20
2019-09-10 14:00:00 23.2 26 Noroeste 40 Noroeste 0 -- -- 22
2019-09-10 13:00:00 22.9 24 Noroeste 44 Noroeste 0 -- -- 22
2019-09-10 12:00:00 22.3 21 Noroeste 36 Oeste 0 -- -- 26
2019-09-10 11:00:00 21.1 20 Noroeste 38 Norte 0 -- -- 30
2019-09-10 10:00:00 17.6 13 Noroeste 25 Noroeste 0 -- -- 46
2019-09-10 09:00:00 14.9 14 Oeste 26 Oeste 0 -- -- 50
2019-09-10 08:00:00 14.5 15 Oeste 24 Oeste 0 -- -- 49
2019-09-10 07:00:00 14.9 13 Oeste 27 Sudoeste 0 -- -- 48
2019-09-10 06:00:00 15.7 13 Sudoeste 28 Oeste 0 -- -- 44
2019-09-10 05:00:00 17 16 Sudoeste 33 Sudoeste 0 -- -- 39
2019-09-10 04:00:00 17.8 17 Sudoeste 30 Sudoeste 0 -- -- 34
2019-09-10 03:00:00 18.8 13 Sudoeste 27 Sudoeste 0 -- -- 33
2019-09-10 02:00:00 20 11 Sudoeste 24 Oeste 0 -- -- 31
2019-09-10 01:00:00 21.2 15 Sudoeste 30 Sudoeste 0 -- -- 32
2019-09-10 00:00:00 22 14 Sudoeste 27 Oeste 0 -- -- 29
2019-09-09 23:00:00 23.4 19 Oeste 41 Sudoeste 0 -- -- 27
2019-09-09 22:00:00 24.5 20 Sudoeste 37 Sudoeste 0 -- -- 24
2019-09-09 21:00:00 25.1 18 Sudoeste 37 Sudoeste 0 -- -- 23
2019-09-09 20:00:00 26.7 22 Sudoeste 48 Sudoeste 0 -- -- 20
2019-09-09 19:00:00 28.4 26 Oeste 50 Sudoeste 0 -- -- 18
2019-09-09 18:00:00 29.5 25 Sudoeste 47 Sudoeste 0 -- -- 20
2019-09-09 17:00:00 30.2 21 Oeste 44 Oeste 0 -- -- 21
2019-09-09 16:00:00 29.7 26 Oeste 45 Oeste 0 -- -- 21
2019-09-09 15:00:00 29.2 21 Sudoeste 40 Sudoeste 0 -- -- 23
2019-09-09 14:00:00 28.8 18 Oeste 36 Oeste 0 -- -- 27
2019-09-09 13:00:00 27.5 19 Oeste 32 Oeste 0 -- -- 33
2019-09-09 12:00:00 26 16 Sudoeste 32 Sudoeste 0 -- -- 38
2019-09-09 11:00:00 23.6 20 Sudoeste 29 Sudoeste 0 -- -- 47
2019-09-09 10:00:00 21.7 17 Sudoeste 27 Sudoeste 0 -- -- 53
2019-09-09 09:00:00 17.8 6 Sudoeste 12 Sudoeste 0 -- -- 67
2019-09-09 08:00:00 15.7 3 Sur 6 Sudoeste 0 -- -- 74
2019-09-09 07:00:00 15.8 2 Sur 8 Sudoeste 0 -- -- 72
2019-09-09 06:00:00 16.6 4 Sur 10 Sur 0 -- -- 68
2019-09-09 05:00:00 16.5 2 Sur 8 Sur 0 -- -- 69
2019-09-09 04:00:00 17.5 0 Calma 10 Sudoeste 0 -- -- 65
2019-09-09 03:00:00 18.4 6 Sudoeste 14 Sudoeste 0 -- -- 64
2019-09-09 02:00:00 19.1 9 Sudoeste 17 Sudoeste 0 -- -- 60
2019-09-09 01:00:00 19.6 10 Sudoeste 21 Sur 0 -- -- 56
2019-09-09 00:00:00 19.9 10 Sudoeste 17 Sudoeste 0 -- -- 55
2019-09-08 23:00:00 20.6 8 Sudoeste 16 Sudoeste 0 -- -- 54
2019-09-08 22:00:00 22.4 12 Sudoeste 23 Oeste 0 -- -- 50
2019-09-08 21:00:00 24.4 17 Sudoeste 27 Sudoeste 0 -- -- 39
2019-09-08 20:00:00 26.1 4 Sur 15 Sudeste 0 -- -- 35
2019-09-08 19:00:00 27 8 Sudeste 22 Este 0 -- -- 34
2019-09-08 18:00:00 29.6 8 Nordeste 17 Norte 0 -- -- 28
2019-09-08 17:00:00 30.3 6 Noroeste 17 Noroeste 0 -- -- 26
2019-09-08 16:00:00 30.4 7 Este 19 Nordeste 0 -- -- 27
2019-09-08 15:00:00 29.2 8 Nordeste 20 Nordeste 0 -- -- 35
2019-09-08 14:00:00 29.8 8 Nordeste 18 Norte 0 -- -- 37
2019-09-08 13:00:00 27.8 8 Nordeste 17 Este 0 -- -- 42
2019-09-08 12:00:00 27.5 3 Este 12 Este 0 -- -- 43
2019-09-08 11:00:00 23.7 6 Este 15 Este 0 -- -- 56
2019-09-08 10:00:00 20.6 9 Este 16 Este 0 -- -- 66
2019-09-08 09:00:00 16.5 9 Sudeste 15 Sudeste 0 -- -- 82
2019-09-08 08:00:00 15.7 7 Este 16 Este 0 -- -- 85
2019-09-08 07:00:00 15.7 6 Este 17 Sudeste 0 -- -- 84
2019-09-08 06:00:00 16.1 6 Este 22 Este 0 -- -- 82
2019-09-08 05:00:00 16.4 12 Este 24 Nordeste 0 -- -- 80
2019-09-08 04:00:00 16.7 10 Este 30 Este 0 -- -- 79
2019-09-08 03:00:00 17 10 Este 28 Este 0 -- -- 77
2019-09-08 02:00:00 17.6 12 Este 28 Nordeste 0 -- -- 76
2019-09-08 01:00:00 18.3 10 Este 27 Este 0 -- -- 74
2019-09-08 00:00:00 19.6 13 Este 21 Nordeste 0 -- -- 68
2019-09-07 23:00:00 21 10 Este 28 Este 0 -- -- 63
2019-09-07 22:00:00 22.3 21 Este 32 Sudeste 0 -- -- 56
2019-09-07 21:00:00 23.5 11 Este 31 Sudeste 0 -- -- 53
2019-09-07 20:00:00 26.1 13 Este 25 Este 0 -- -- 38
2019-09-07 19:00:00 29.4 9 Este 21 Nordeste 0 -- -- 27
2019-09-07 18:00:00 29.7 7 Este 23 Sudeste 0 -- -- 26
2019-09-07 17:00:00 30.7 6 Sudeste 30 Nordeste 0 -- -- 26
2019-09-07 16:00:00 30.5 16 Nordeste 31 Este 0 -- -- 28
2019-09-07 15:00:00 29.4 14 Nordeste 33 Este 0 -- -- 31
2019-09-07 14:00:00 28.4 17 Nordeste 32 Nordeste 0 -- -- 37
2019-09-07 13:00:00 26.8 15 Este 32 Nordeste 0 -- -- 42
2019-09-07 12:00:00 25 14 Este 27 Este 0 -- -- 51
2019-09-07 11:00:00 22.3 17 Este 29 Este 0 -- -- 63
2019-09-07 10:00:00 20.2 13 Este 30 Este 0 -- -- 73
2019-09-07 09:00:00 17.8 11 Este 22 Este 0 -- -- 83
2019-09-07 08:00:00 17.1 8 Este 20 Este 0 -- -- 86
2019-09-07 07:00:00 17.2 8 Este 24 Este 0 -- -- 84
2019-09-07 06:00:00 17.2 12 Este 23 Este 0 -- -- 83
2019-09-07 05:00:00 17.9 10 Este 28 Este 0 -- -- 81
2019-09-07 04:00:00 18.3 10 Este 30 Este 0 -- -- 80
2019-09-07 03:00:00 18.7 10 Este 29 Este 0 -- -- 79
2019-09-07 02:00:00 19.2 12 Este 34 Nordeste 0 -- -- 77
2019-09-07 01:00:00 19.4 12 Este 27 Este 0 -- -- 76
2019-09-07 00:00:00 20 10 Este 27 Este 0 -- -- 71
2019-09-06 23:00:00 21.2 9 Este 24 Este 0 -- -- 62
2019-09-06 22:00:00 22.8 7 Este 24 Sudeste 0 -- -- 52
2019-09-06 21:00:00 25.2 4 Oeste 16 Oeste 0 -- -- 26
2019-09-06 20:00:00 27.7 10 Oeste 19 Oeste 0 -- -- 24
2019-09-06 19:00:00 29.4 9 Oeste 22 Oeste 0 -- -- 24
2019-09-06 18:00:00 31.5 7 Noroeste 19 Oeste 0 -- -- 22
2019-09-06 17:00:00 31.3 9 Noroeste 21 Sudoeste 0 -- -- 24
2019-09-06 16:00:00 29.7 9 Sudoeste 22 Oeste 0 -- -- 26
2019-09-06 15:00:00 31.7 7 Norte 18 Nordeste 0 -- -- 27
2019-09-06 14:00:00 28.3 4 Sur 19 Nordeste 0 -- -- 30
2019-09-06 13:00:00 26.8 7 Norte 19 Nordeste 0 -- -- 41
2019-09-06 12:00:00 24.4 8 Este 24 Nordeste 0 -- -- 50
2019-09-06 11:00:00 22.3 11 Este 23 Nordeste 0 -- -- 54
2019-09-06 10:00:00 20.8 13 Nordeste 24 Este 0 -- -- 57
2019-09-06 09:00:00 18.3 14 Nordeste 22 Nordeste 0 -- -- 63
2019-09-06 08:00:00 16.9 9 Nordeste 19 Nordeste 0 -- -- 67
2019-09-06 07:00:00 17.5 13 Nordeste 23 Nordeste 0 -- -- 65
2019-09-06 06:00:00 17.9 17 Nordeste 28 Nordeste 0 -- -- 59
2019-09-06 05:00:00 18.1 14 Nordeste 24 Nordeste 0 -- -- 55
2019-09-06 04:00:00 18.1 14 Nordeste 28 Nordeste 0 -- -- 49
2019-09-06 03:00:00 18.7 14 Nordeste 33 Este 0 -- -- 51
2019-09-06 02:00:00 20.1 23 Nordeste 33 Nordeste 0 -- -- 67
2019-09-06 01:00:00 20.6 16 Nordeste 28 Nordeste 0 -- -- 66
2019-09-06 00:00:00 19.7 8 Norte 24 Norte 0 -- -- 41
2019-09-05 23:00:00 20.9 13 Norte 25 Noroeste 0 -- -- 25
2019-09-05 22:00:00 22.7 13 Noroeste 25 Noroeste 0 -- -- 23
2019-09-05 21:00:00 25 10 Noroeste 28 Noroeste 0 -- -- 19
2019-09-05 20:00:00 28.9 17 Noroeste 28 Noroeste 0 -- -- 21
2019-09-05 19:00:00 31.9 17 Noroeste 27 Noroeste 0 -- -- 20
2019-09-05 18:00:00 29.7 5 Sudoeste 17 Norte 0 -- -- 30
2019-09-05 17:00:00 32.6 6 Nordeste 21 Nordeste 0 -- -- 26
2019-09-05 16:00:00 31.9 11 Nordeste 26 Nordeste 0 -- -- 28
2019-09-05 15:00:00 30 9 Nordeste 25 Nordeste 0 -- -- 33
2019-09-05 14:00:00 28.6 13 Nordeste 29 Nordeste 0 -- -- 35
2019-09-05 13:00:00 26.7 16 Nordeste 30 Nordeste 0 -- -- 43
2019-09-05 12:00:00 25.3 14 Este 35 Este 0 -- -- 47
2019-09-05 11:00:00 23.3 21 Este 34 Este 0 -- -- 56
2019-09-05 10:00:00 21.6 23 Nordeste 36 Nordeste 0 -- -- 62
2019-09-05 09:00:00 18.9 15 Nordeste 24 Este 0 -- -- 79
2019-09-05 08:00:00 18.2 10 Nordeste 22 Nordeste 0 -- -- 84
2019-09-05 07:00:00 18.3 12 Nordeste 24 Nordeste 0 -- -- 83
2019-09-05 06:00:00 18.7 15 Este 24 Este 0 -- -- 81
2019-09-05 05:00:00 19.4 12 Este 24 Este 0 -- -- 78
2019-09-05 04:00:00 20.3 10 Este 26 Este 0 -- -- 75
2019-09-05 03:00:00 20.4 16 Nordeste 28 Nordeste 0 -- -- 75
2019-09-05 02:00:00 21.1 17 Nordeste 26 Nordeste 0 -- -- 74
2019-09-05 01:00:00 22.4 13 Sudeste 24 Este 0 -- -- 68
2019-09-05 00:00:00 22.8 7 Nordeste 16 Este 0 -- -- 43
2019-09-04 23:00:00 24.9 0 Calma 13 Nordeste 0 -- -- 31
2019-09-04 22:00:00 27.3 5 Norte 10 Noroeste 0 -- -- 25
2019-09-04 21:00:00 28.8 5 Norte 18 Norte 0 -- -- 22
2019-09-04 20:00:00 33 10 Noroeste 23 Noroeste 0 -- -- 19
2019-09-04 19:00:00 34.9 12 Noroeste 29 Oeste 0 -- -- 16
2019-09-04 18:00:00 35 14 Noroeste 34 Sudoeste 0 -- -- 17
2019-09-04 17:00:00 34.8 14 Oeste 27 Oeste 0 -- -- 18
2019-09-04 16:00:00 34.9 8 Oeste 26 Oeste 0 -- -- 22
2019-09-04 15:00:00 36.1 8 Noroeste 19 Noroeste 0 -- -- 23
2019-09-04 14:00:00 33.8 6 Noroeste 17 Oeste 0 -- -- 30
2019-09-04 13:00:00 33.7 5 Noroeste 12 Noroeste 0 -- -- 31
2019-09-04 12:00:00 30.4 4 Oeste 15 Este 0 -- -- 39
2019-09-04 11:00:00 25.1 9 Este 19 Nordeste 0 -- -- 56
2019-09-04 10:00:00 21.8 10 Este 20 Este 0 -- -- 73
2019-09-04 09:00:00 19 8 Este 19 Este 0 -- -- 87
2019-09-04 08:00:00 17.9 6 Este 15 Este 0 -- -- 89
2019-09-04 07:00:00 18 6 Este 18 Nordeste 0 -- -- 88
2019-09-04 06:00:00 18.3 9 Este 18 Este 0 -- -- 87
2019-09-04 05:00:00 19 8 Este 19 Este 0 -- -- 85
2019-09-04 04:00:00 19.6 11 Este 20 Nordeste 0 -- -- 83
2019-09-04 03:00:00 20.5 13 Nordeste 23 Nordeste 0 -- -- 76
2019-09-04 02:00:00 21.1 9 Este 22 Este 0 -- -- 68
2019-09-04 01:00:00 22.4 13 Nordeste 21 Nordeste 0 -- -- 55
2019-09-04 00:00:00 23.5 3 Sur 14 Sudeste 0 -- -- 50
2019-09-03 23:00:00 24.5 9 Sudeste 14 Sudeste 0 -- -- 41
2019-09-03 22:00:00 27.2 2 Norte 6 Noroeste 0 -- -- 31
2019-09-03 21:00:00 29.2 4 Noroeste 13 Noroeste 0 -- -- 27
2019-09-03 20:00:00 32.7 9 Noroeste 17 Noroeste 0 -- -- 21
2019-09-03 19:00:00 34.4 11 Noroeste 21 Oeste 0 -- -- 23
2019-09-03 18:00:00 35.9 13 Noroeste 27 Noroeste 0 -- -- 20
2019-09-03 17:00:00 37 11 Norte 26 Noroeste 0 -- -- 23
2019-09-03 16:00:00 35 6 Nordeste 17 Noroeste 0 -- -- 25
2019-09-03 15:00:00 34.1 6 Oeste 15 Nordeste 0 -- -- 30
2019-09-03 14:00:00 32.4 9 Nordeste 26 Nordeste 0 -- -- 34
2019-09-03 13:00:00 29.6 10 Este 23 Nordeste 0 -- -- 42
2019-09-03 12:00:00 27 10 Este 23 Este 0 -- -- 50
2019-09-03 11:00:00 24.9 12 Nordeste 24 Este 0 -- -- 59
2019-09-03 10:00:00 21.7 9 Este 23 Nordeste 0 -- -- 73
2019-09-03 09:00:00 18.6 8 Este 18 Este 0 -- -- 86
2019-09-03 08:00:00 17.4 7 Este 17 Este 0 -- -- 88
2019-09-03 07:00:00 17.5 9 Este 21 Este 0 -- -- 87
2019-09-03 06:00:00 17.9 7 Este 18 Este 0 -- -- 86
2019-09-03 05:00:00 18.3 10 Este 23 Nordeste 0 -- -- 85
2019-09-03 04:00:00 18.8 14 Nordeste 28 Nordeste 0 -- -- 84
2019-09-03 03:00:00 19.6 13 Nordeste 24 Este 0 -- -- 79
2019-09-03 02:00:00 20.2 8 Este 19 Este 0 -- -- 77
2019-09-03 01:00:00 20.9 7 Este 22 Sudeste 0 -- -- 69
2019-09-03 00:00:00 21.8 14 Este 25 Este 0 -- -- 65
2019-09-02 23:00:00 23.1 6 Nordeste 12 Este 0 -- -- 59
2019-09-02 22:00:00 24.9 3 Este 10 Este 0 -- -- 52
2019-09-02 21:00:00 26.5 5 Este 16 Nordeste 0 -- -- 38
2019-09-02 20:00:00 30.2 6 Este 13 Este 0 -- -- 31
2019-09-02 19:00:00 30.6 6 Este 18 Sur 0 -- -- 31
2019-09-02 18:00:00 30.3 8 Sur 34 Este 0 -- -- 32
2019-09-02 17:00:00 30.5 17 Este 35 Sudeste 0 -- -- 37
2019-09-02 16:00:00 31.5 17 Este 36 Nordeste 0 -- -- 35
2019-09-02 15:00:00 32.4 17 Nordeste 34 Nordeste 0 -- -- 34
2019-09-02 14:00:00 29.7 16 Este 33 Este 0 -- -- 40
2019-09-02 13:00:00 28 15 Este 31 Este 0 -- -- 46
2019-09-02 12:00:00 25.3 17 Este 32 Este 0 -- -- 56
2019-09-02 11:00:00 23.3 15 Este 31 Este 0 -- -- 62
2019-09-02 10:00:00 20.9 14 Este 34 Nordeste 0 -- -- 69
2019-09-02 09:00:00 19.5 14 Este 32 Este 0 -- -- 72
2019-09-02 08:00:00 19 16 Este 37 Este 0 -- -- 74
2019-09-02 07:00:00 20.1 18 Este 30 Nordeste 0 -- -- 69
2019-09-02 06:00:00 21.4 12 Este 32 Nordeste 0 -- -- 63
2019-09-02 05:00:00 21.9 13 Este 30 Este 0 -- -- 60
2019-09-02 04:00:00 22.6 16 Este 30 Este 0 -- -- 56
2019-09-02 03:00:00 23.5 14 Este 28 Este 0 -- -- 56
2019-09-02 02:00:00 24.7 8 Este 18 Nordeste 0 -- -- 50
2019-09-02 01:00:00 26.2 4 Este 13 Sur 0 -- -- 42
2019-09-02 00:00:00 26.8 6 Sudeste 19 Nordeste 0 -- -- 39
2019-09-01 23:00:00 27.5 5 Sur 14 Sur 0 -- -- 36
2019-09-01 22:00:00 28.7 4 Sur 15 Sudoeste 0 -- -- 33
2019-09-01 21:00:00 30.3 4 Noroeste 10 Oeste 0 -- -- 25
2019-09-01 20:00:00 31.8 7 Noroeste 17 Oeste 0 -- -- 22
2019-09-01 19:00:00 33.6 10 Noroeste 22 Noroeste 0 -- -- 20
2019-09-01 18:00:00 35.3 10 Oeste 23 Oeste 0 -- -- 18
2019-09-01 17:00:00 35.5 12 Oeste 24 Sudoeste 0 -- -- 19
2019-09-01 16:00:00 34 15 Sudoeste 28 Sudoeste 0 -- -- 21
2019-09-01 15:00:00 34.9 5 Sudoeste 23 Noroeste 0 -- -- 21
2019-09-01 14:00:00 35.1 8 Oeste 18 Oeste 0 -- -- 21
2019-09-01 13:00:00 33 8 Sudoeste 17 Oeste 0 -- -- 26
2019-09-01 12:00:00 31 8 Sudoeste 16 Sudoeste 0 -- -- 31
2019-09-01 11:00:00 29.2 4 Sudoeste 9 Oeste 0 -- -- 38
2019-09-01 10:00:00 27.2 3 Norte 7 Nordeste 0 -- -- 47
2019-09-01 09:00:00 21.7 2 Norte 8 Este 0 -- -- 61
2019-09-01 08:00:00 17 5 Este 9 Nordeste 0 -- -- 80
2019-09-01 07:00:00 16.9 4 Nordeste 10 Nordeste 0 -- -- 81
2019-09-01 06:00:00 17.5 6 Nordeste 14 Nordeste 0 -- -- 78
2019-09-01 05:00:00 17.7 9 Nordeste 13 Nordeste 0 -- -- 73
2019-09-01 04:00:00 18.2 8 Nordeste 15 Nordeste 0 -- -- 66
2019-09-01 03:00:00 19.5 6 Nordeste 8 Nordeste 0 -- -- 57
2019-09-01 02:00:00 20.5 5 Este 12 Nordeste 0 -- -- 54
2019-09-01 01:00:00 21.9 4 Sudeste 12 Sur 0 -- -- 50
2019-09-01 00:00:00 23.1 4 Sudeste 14 Sudeste 0 -- -- 40
2019-08-31 23:00:00 25.3 5 Sudeste 13 Este 0 -- -- 32
2019-08-31 22:00:00 26.5 3 Sudeste 5 Noroeste 0 -- -- 29
2019-08-31 21:00:00 28.8 4 Norte 8 Norte 0 -- -- 26
2019-08-31 20:00:00 34.1 5 Norte 11 Norte 0 -- -- 19
2019-08-31 19:00:00 34.4 6 Noroeste 13 Norte 0 -- -- 18
2019-08-31 18:00:00 35.9 4 Norte 18 Noroeste 0 -- -- 17
2019-08-31 17:00:00 36.8 10 Norte 17 Norte 0 -- -- 18
2019-08-31 16:00:00 34.8 8 Nordeste 15 Nordeste 0 -- -- 22
2019-08-31 15:00:00 35.4 7 Norte 15 Nordeste 0 -- -- 23
2019-08-31 14:00:00 33.8 4 Norte 14 Oeste 0 -- -- 28
2019-08-31 13:00:00 30.9 9 Oeste 15 Oeste 0 -- -- 34
2019-08-31 12:00:00 31.6 5 Noroeste 15 Nordeste 0 -- -- 35
2019-08-31 11:00:00 27.3 5 Este 11 Este 0 -- -- 44
2019-08-31 10:00:00 22.3 6 Este 14 Este 0 -- -- 59
2019-08-31 09:00:00 19.2 8 Nordeste 13 Nordeste 0 -- -- 69
2019-08-31 08:00:00 16 3 Nordeste 8 Nordeste 0 -- -- 82
2019-08-31 07:00:00 16.6 6 Nordeste 11 Nordeste 0 -- -- 77
2019-08-31 06:00:00 17.1 4 Nordeste 9 Sudoeste 0 -- -- 74
2019-08-31 05:00:00 17.6 4 Este 10 Nordeste 0 -- -- 73
2019-08-31 04:00:00 18.3 9 Nordeste 13 Nordeste 0 -- -- 70
2019-08-31 03:00:00 19 2 Nordeste 9 Este 0 -- -- 63
2019-08-31 02:00:00 19.7 3 Sudeste 12 Sur 0 -- -- 62
2019-08-31 01:00:00 20.5 4 Sudeste 9 Este 0 -- -- 56
2019-08-31 00:00:00 21.7 4 Este 14 Noroeste 0 -- -- 52
2019-08-30 23:00:00 23.4 10 Noroeste 17 Noroeste 0 -- -- 46
2019-08-30 22:00:00 23.8 8 Sudeste 32 Este 0 -- -- 47
2019-08-30 21:00:00 25.1 15 Este 41 Nordeste 0 -- -- 42
2019-08-30 20:00:00 27.6 24 Nordeste 37 Nordeste 0 -- -- 29
2019-08-30 19:00:00 30.7 22 Nordeste 42 Norte 0 -- -- 27
2019-08-30 18:00:00 30.3 22 Nordeste 49 Noroeste 0 -- -- 28
2019-08-30 17:00:00 36.7 5 Oeste 17 Sur 0 -- -- 20
2019-08-30 16:00:00 36.3 6 Nordeste 21 Este 0 -- -- 22
2019-08-30 15:00:00 34.3 7 Este 23 Este 0 -- -- 25
2019-08-30 14:00:00 34.5 7 Nordeste 21 Nordeste 0 -- -- 25
2019-08-30 13:00:00 32.8 7 Nordeste 17 Nordeste 0 -- -- 30
2019-08-30 12:00:00 30.8 6 Nordeste 15 Nordeste 0 -- -- 35
2019-08-30 11:00:00 28.9 7 Nordeste 14 Nordeste 0 -- -- 44
2019-08-30 10:00:00 25.1 5 Este 13 Sudeste 0 -- -- 55
2019-08-30 09:00:00 20.2 5 Este 11 Este 0 -- -- 74
2019-08-30 08:00:00 17.9 4 Este 10 Este 0 -- -- 81
2019-08-30 07:00:00 18.1 8 Nordeste 14 Este 0 -- -- 79
2019-08-30 06:00:00 18.9 5 Este 16 Este 0 -- -- 77
2019-08-30 05:00:00 19 9 Este 19 Este 0 -- -- 78
2019-08-30 04:00:00 19.4 7 Este 17 Este 0 -- -- 78
2019-08-30 03:00:00 19.9 7 Este 19 Este 0 -- -- 76
2019-08-30 02:00:00 20.5 10 Este 17 Este 0 -- -- 74
2019-08-30 01:00:00 21.7 12 Nordeste 19 Nordeste 0 -- -- 66
2019-08-30 00:00:00 23.7 10 Este 23 Sudeste 0 -- -- 53
2019-08-29 23:00:00 23.9 3 Sur 14 Sudeste 0 -- -- 46
2019-08-29 22:00:00 25.4 3 Nordeste 5 Nordeste 0 -- -- 41
2019-08-29 21:00:00 27.8 3 Nordeste 9 Norte 0 -- -- 33
2019-08-29 20:00:00 32.6 6 Nordeste 12 Nordeste 0 -- -- 24
2019-08-29 19:00:00 35.4 6 Norte 13 Noroeste 0 -- -- 22
2019-08-29 18:00:00 33.8 5 Sudoeste 12 Nordeste 0 -- -- 25
2019-08-29 17:00:00 32 4 Este 17 Nordeste 0 -- -- 28
2019-08-29 16:00:00 33.3 4 Sur 16 Nordeste 0 -- -- 28
2019-08-29 15:00:00 32 5 Nordeste 13 Este 0 -- -- 31
2019-08-29 14:00:00 32.2 3 Noroeste 14 Nordeste 0 -- -- 34
2019-08-29 13:00:00 29.7 6 Este 15 Este 0 -- -- 39
2019-08-29 12:00:00 25.4 6 Este 20 Este 0 -- -- 53
2019-08-29 11:00:00 23.9 12 Este 22 Nordeste 0 -- -- 62
2019-08-29 10:00:00 22.1 9 Este 19 Este 0 -- -- 66
2019-08-29 09:00:00 18.4 9 Nordeste 16 Nordeste 0 -- -- 73
2019-08-29 08:00:00 16.5 6 Nordeste 12 Nordeste 0 -- -- 84
2019-08-29 07:00:00 16.8 9 Nordeste 15 Nordeste 0 -- -- 83
2019-08-29 06:00:00 17.4 10 Nordeste 16 Este 0 -- -- 83
2019-08-29 05:00:00 18 9 Nordeste 18 Este 0 -- -- 85
2019-08-29 04:00:00 19.1 9 Este 18 Este 0 -- -- 81
2019-08-29 03:00:00 19.7 9 Este 18 Nordeste 0 -- -- 63
2019-08-29 02:00:00 19.3 5 Nordeste 15 Nordeste 0 -- -- 61
2019-08-29 01:00:00 19.8 3 Sur 9 Sudeste 0 -- -- 58
2019-08-29 00:00:00 21.4 6 Sudeste 11 Sudeste 0 -- -- 48
2019-08-28 23:00:00 23.3 6 Sudeste 13 Sudeste 0 -- -- 43
2019-08-28 22:00:00 24.9 0 Calma 6 Norte 0 -- -- 36
2019-08-28 21:00:00 27 3 Norte 14 Noroeste 0 -- -- 30
2019-08-28 20:00:00 31.7 5 Noroeste 16 Oeste 0 -- -- 23
2019-08-28 19:00:00 31.9 10 Oeste 21 Noroeste 0 -- -- 23
2019-08-28 18:00:00 32.3 12 Oeste 22 Oeste 0 -- -- 23
2019-08-28 17:00:00 33.4 9 Noroeste 21 Noroeste 0 -- -- 22
2019-08-28 16:00:00 31.8 8 Sudoeste 20 Oeste 0 -- -- 25
2019-08-28 15:00:00 31.1 8 Oeste 21 Sur 0 -- -- 27
2019-08-28 14:00:00 32.5 6 Noroeste 16 Noroeste 0 -- -- 27
2019-08-28 13:00:00 30.1 5 Sudeste 20 Norte 0 -- -- 33
2019-08-28 12:00:00 28.5 5 Nordeste 10 Nordeste 0 -- -- 37
2019-08-28 11:00:00 26.9 3 Norte 10 Nordeste 0 -- -- 47
2019-08-28 10:00:00 21.7 6 Nordeste 10 Nordeste 0 -- -- 66
2019-08-28 09:00:00 17.7 4 Nordeste 10 Este 0 -- -- 80
2019-08-28 08:00:00 14.5 6 Nordeste 8 Nordeste 0 -- -- 89
2019-08-28 07:00:00 14.6 5 Nordeste 8 Nordeste 0 -- -- 88
2019-08-28 06:00:00 15.1 6 Nordeste 11 Nordeste 0 -- -- 86
2019-08-28 05:00:00 15.5 5 Nordeste 9 Nordeste 0 -- -- 85
2019-08-28 04:00:00 16 4 Nordeste 9 Nordeste 0 -- -- 83
2019-08-28 03:00:00 16.6 5 Este 10 Este 0 -- -- 81
2019-08-28 02:00:00 17.7 5 Nordeste 8 Sudeste 0 -- -- 72
2019-08-28 01:00:00 18.7 3 Este 12 Sudeste 0 -- -- 68
2019-08-28 00:00:00 19.7 7 Nordeste 13 Nordeste 0 -- -- 67
2019-08-27 23:00:00 21.6 4 Nordeste 6 Nordeste 0 -- -- 55
2019-08-27 22:00:00 22.7 2 Norte 7 Noroeste 0 -- -- 48
2019-08-27 21:00:00 24.4 5 Norte 13 Oeste 0 -- -- 41
2019-08-27 20:00:00 27.4 6 Noroeste 17 Oeste 0 -- -- 37
2019-08-27 19:00:00 29 12 Noroeste 24 Oeste 0 -- -- 34
2019-08-27 18:00:00 27.9 11 Oeste 23 Oeste 0 -- -- 37
2019-08-27 17:00:00 30.2 11 Noroeste 22 Oeste 0 -- -- 33
2019-08-27 16:00:00 28.5 9 Noroeste 23 Oeste 0 -- -- 38
2019-08-27 15:00:00 27.1 11 Oeste 20 Oeste 0 -- -- 40
2019-08-27 14:00:00 27.6 8 Noroeste 20 Oeste 0 -- -- 41
2019-08-27 13:00:00 26.6 4 Oeste 14 Oeste 0 -- -- 45
2019-08-27 12:00:00 25.6 5 Noroeste 11 Oeste 0 -- -- 50
2019-08-27 11:00:00 23.4 3 Este 9 Este 0 -- -- 56
2019-08-27 10:00:00 19.3 4 Este 8 Este 0 -- -- 73
2019-08-27 09:00:00 16 6 Nordeste 10 Nordeste 0 -- -- 82
2019-08-27 08:00:00 14 3 Nordeste 9 Este 0 -- -- 87
2019-08-27 07:00:00 13.8 6 Este 13 Este 0 -- -- 86
2019-08-27 06:00:00 14.3 5 Este 15 Este 0 -- -- 83
2019-08-27 05:00:00 14.5 10 Sudeste 23 Este 0 -- -- 84
2019-08-27 04:00:00 15 10 Este 17 Sudeste 0 -- -- 83
2019-08-27 03:00:00 15.3 9 Sudeste 28 Este 0 -- -- 82
2019-08-27 02:00:00 15.6 12 Sudeste 26 Norte 0 -- -- 82
2019-08-27 01:00:00 16.5 8 Norte 32 Oeste 0.4 -- -- 83
2019-08-27 00:00:00 17 8 Sur 43 Sudoeste 3.4 -- -- 75
2019-08-26 23:00:00 19.1 17 Sudeste 43 Sudeste 0.8 -- -- 67
2019-08-26 22:00:00 22.1 13 Este 27 Sudeste 0.2 -- -- 71
2019-08-26 21:00:00 22.9 13 Este 30 Sudeste 0 -- -- 60
2019-08-26 20:00:00 22.5 17 Sudeste 56 Sudeste 2 -- -- 67
2019-08-26 19:00:00 27 19 Este 44 Este 0 -- -- 45
2019-08-26 18:00:00 28.1 23 Este 40 Sudeste 0 -- -- 42
2019-08-26 17:00:00 27.6 22 Este 44 Este 0 -- -- 43
2019-08-26 16:00:00 27 24 Este 44 Este 0 -- -- 44
2019-08-26 15:00:00 25.9 28 Sudeste 45 Sudeste 0 -- -- 46
2019-08-26 14:00:00 26.4 19 Sudeste 38 Este 0 -- -- 46
2019-08-26 13:00:00 24.5 22 Este 35 Sudeste 0 -- -- 56
2019-08-26 12:00:00 21.8 17 Este 30 Sudeste 0 -- -- 71
2019-08-26 11:00:00 19.2 9 Este 29 Este 1 -- -- 83
2019-08-26 10:00:00 19.8 10 Este 32 Este 0 -- -- 74
2019-08-26 09:00:00 19.1 14 Este 31 Este 0 -- -- 77
2019-08-26 08:00:00 17.9 12 Este 43 Este 0 -- -- 81
2019-08-26 07:00:00 18 14 Este 32 Nordeste 0 -- -- 81
2019-08-26 06:00:00 18.4 9 Este 22 Este 0 -- -- 78
2019-08-26 05:00:00 18.6 8 Este 22 Este 0 -- -- 77
2019-08-26 04:00:00 19 13 Este 27 Nordeste 0 -- -- 74
2019-08-26 03:00:00 19.8 11 Este 25 Nordeste 0 -- -- 66
2019-08-26 02:00:00 21 10 Este 37 Este 0 -- -- 55
2019-08-26 01:00:00 22.1 20 Este 40 Sudeste 0 -- -- 48
2019-08-26 00:00:00 22.6 14 Este 35 Este 0 -- -- 44
2019-08-25 23:00:00 23.9 22 Sudeste 36 Este 0 -- -- 39
2019-08-25 22:00:00 25.2 22 Sudeste 39 Sudeste 0 -- -- 37
2019-08-25 21:00:00 26.7 18 Sudeste 33 Sudeste 0 -- -- 31
2019-08-25 20:00:00 28.4 19 Sudeste 33 Este 0 -- -- 28
2019-08-25 19:00:00 29.1 15 Este 33 Sudeste 0 -- -- 24
2019-08-25 18:00:00 31.2 13 Este 32 Este 0 -- -- 22
2019-08-25 17:00:00 31.9 16 Este 33 Este 0 -- -- 20
2019-08-25 16:00:00 31.6 15 Este 30 Nordeste 0 -- -- 21
2019-08-25 15:00:00 31.5 16 Este 34 Este 0 -- -- 23
2019-08-25 14:00:00 31.2 14 Este 35 Nordeste 0 -- -- 23
2019-08-25 13:00:00 29.4 17 Este 28 Sudeste 0 -- -- 27
2019-08-25 12:00:00 27.3 13 Este 27 Este 0 -- -- 41
2019-08-25 11:00:00 24.3 12 Este 30 Este 0 -- -- 56
2019-08-25 10:00:00 21.5 9 Este 23 Este 0 -- -- 67
2019-08-25 09:00:00 18.8 8 Este 18 Nordeste 0 -- -- 72
2019-08-25 08:00:00 16.7 6 Este 19 Este 0 -- -- 79
2019-08-25 07:00:00 16.7 12 Este 24 Este 0 -- -- 77
2019-08-25 06:00:00 17.1 12 Nordeste 20 Este 0 -- -- 79
2019-08-25 05:00:00 18 12 Nordeste 17 Nordeste 0 -- -- 81
2019-08-25 04:00:00 18.8 5 Este 16 Sudeste 0 -- -- 78
2019-08-25 03:00:00 19.9 7 Este 19 Sudeste 0 -- -- 73
2019-08-25 02:00:00 20.8 11 Este 28 Nordeste 0 -- -- 69
2019-08-25 01:00:00 21.5 8 Este 23 Este 0 -- -- 65
2019-08-25 00:00:00 22.8 6 Este 19 Nordeste 0 -- -- 54
2019-08-24 23:00:00 24.6 10 Este 24 Este 0 -- -- 42
2019-08-24 22:00:00 25.8 4 Sudeste 13 Sudeste 0 -- -- 27
2019-08-24 21:00:00 28.8 8 Sudeste 17 Este 0 -- -- 24
2019-08-24 20:00:00 31.8 5 Sudeste 17 Sudeste 0 -- -- 19
2019-08-24 19:00:00 33.2 8 Este 22 Nordeste 0 -- -- 17
2019-08-24 18:00:00 34.4 10 Nordeste 24 Nordeste 0 -- -- 17
2019-08-24 17:00:00 34.6 13 Nordeste 27 Nordeste 0 -- -- 17
2019-08-24 16:00:00 33.9 9 Este 23 Este 0 -- -- 18
2019-08-24 15:00:00 32.6 8 Este 24 Este 0 -- -- 21
2019-08-24 14:00:00 31.5 11 Este 24 Nordeste 0 -- -- 23
2019-08-24 13:00:00 29.4 10 Este 23 Nordeste 0 -- -- 26
2019-08-24 12:00:00 27.3 11 Este 25 Nordeste 0 -- -- 33
2019-08-24 11:00:00 24.6 8 Este 22 Este 0 -- -- 41
2019-08-24 10:00:00 22.1 8 Este 19 Nordeste 0 -- -- 46
2019-08-24 09:00:00 18.4 5 Este 21 Este 0 -- -- 56
2019-08-24 08:00:00 15.2 11 Nordeste 18 Este 0 -- -- 69
2019-08-24 07:00:00 14.9 10 Este 15 Este 0 -- -- 72
2019-08-24 06:00:00 15.5 8 Nordeste 17 Este 0 -- -- 71
2019-08-24 05:00:00 16.4 9 Este 18 Este 0 -- -- 65
2019-08-24 04:00:00 16.9 5 Este 16 Este 0 -- -- 60
2019-08-24 03:00:00 18.1 8 Este 16 Este 0 -- -- 62
2019-08-24 02:00:00 18.8 11 Este 21 Este 0 -- -- 61
2019-08-24 01:00:00 19.2 13 Este 21 Este 0 -- -- 50
2019-08-24 00:00:00 20.9 6 Este 16 Nordeste 0 -- -- 40
2019-08-23 23:00:00 23.1 6 Este 22 Sudeste 0 -- -- 34
2019-08-23 22:00:00 25.1 8 Sudeste 16 Sudeste 0 -- -- 27
2019-08-23 21:00:00 27.4 6 Este 17 Este 0 -- -- 23
2019-08-23 20:00:00 29.9 9 Este 23 Sudeste 0 -- -- 20
2019-08-23 19:00:00 31.3 14 Este 26 Este 0 -- -- 19
2019-08-23 18:00:00 31.4 12 Este 28 Nordeste 0 -- -- 17
2019-08-23 17:00:00 32.6 12 Este 27 Este 0 -- -- 15
2019-08-23 16:00:00 32.3 14 Nordeste 32 Este 0 -- -- 17
2019-08-23 15:00:00 30.7 17 Este 32 Nordeste 0 -- -- 18
2019-08-23 14:00:00 29.5 15 Este 32 Este 0 -- -- 23
2019-08-23 13:00:00 28.1 15 Este 32 Este 0 -- -- 27
2019-08-23 12:00:00 25.9 15 Este 31 Este 0 -- -- 37
2019-08-23 11:00:00 23.6 14 Este 27 Sudeste 0 -- -- 47
2019-08-23 10:00:00 20.5 12 Este 25 Este 0 -- -- 59
2019-08-23 09:00:00 17.9 11 Este 22 Este 0 -- -- 71
2019-08-23 08:00:00 15.2 8 Este 17 Este 0 -- -- 80
2019-08-23 07:00:00 15.6 8 Este 19 Sudeste 0 -- -- 79
2019-08-23 06:00:00 15.9 8 Este 22 Sudeste 0 -- -- 73
2019-08-23 05:00:00 16.6 10 Este 21 Sudeste 0 -- -- 67
2019-08-23 04:00:00 17 5 Este 20 Este 0 -- -- 66
2019-08-23 03:00:00 17.9 12 Nordeste 26 Este 0 -- -- 67
2019-08-23 02:00:00 19.3 13 Nordeste 22 Este 0 -- -- 69
2019-08-23 01:00:00 20.9 8 Este 16 Este 0 -- -- 64
2019-08-23 00:00:00 22.4 5 Este 12 Sudeste 0 -- -- 57
2019-08-22 23:00:00 23.5 6 Este 16 Este 0 -- -- 44
2019-08-22 22:00:00 25.2 8 Nordeste 14 Nordeste 0 -- -- 38
2019-08-22 21:00:00 27.5 9 Nordeste 21 Este 0 -- -- 33
2019-08-22 20:00:00 30.3 13 Nordeste 25 Este 0 -- -- 26
2019-08-22 19:00:00 31 13 Este 25 Este 0 -- -- 25
2019-08-22 18:00:00 31.8 10 Este 25 Nordeste 0 -- -- 21
2019-08-22 17:00:00 31.9 12 Este 25 Nordeste 0 -- -- 22
2019-08-22 16:00:00 31.7 13 Nordeste 26 Nordeste 0 -- -- 23
2019-08-22 15:00:00 29.9 11 Este 26 Este 0 -- -- 29
2019-08-22 14:00:00 29.1 12 Este 26 Nordeste 0 -- -- 32
2019-08-22 13:00:00 26.7 12 Este 26 Este 0 -- -- 41
2019-08-22 12:00:00 25 12 Este 23 Este 0 -- -- 48
2019-08-22 11:00:00 22.9 10 Este 20 Nordeste 0 -- -- 58
2019-08-22 10:00:00 21 7 Este 16 Nordeste 0 -- -- 67
2019-08-22 09:00:00 17.7 6 Este 13 Este 0 -- -- 79
2019-08-22 08:00:00 14.1 7 Este 11 Nordeste 0 -- -- 88
2019-08-22 07:00:00 14.2 6 Este 12 Este 0 -- -- 86
2019-08-22 06:00:00 14.5 7 Nordeste 11 Nordeste 0 -- -- 84
2019-08-22 05:00:00 15.4 7 Nordeste 12 Nordeste 0 -- -- 86
2019-08-22 04:00:00 16.4 6 Norte 13 Nordeste 0 -- -- 84
2019-08-22 03:00:00 17.3 5 Este 13 Sudeste 0 -- -- 79
2019-08-22 02:00:00 17.4 4 Sur 19 Sudeste 0 -- -- 82
2019-08-22 01:00:00 18 9 Sudeste 19 Este 0 -- -- 74
2019-08-22 00:00:00 19 8 Este 29 Nordeste 0 -- -- 73
2019-08-21 23:00:00 19.1 14 Nordeste 27 Este 0 -- -- 76
2019-08-21 22:00:00 19.7 10 Este 31 Este 0 -- -- 77
2019-08-21 21:00:00 21 17 Este 34 Este 0 -- -- 71
2019-08-21 20:00:00 22 13 Este 31 Este 0 -- -- 68
2019-08-21 19:00:00 23.2 14 Este 32 Sudeste 0 -- -- 65
2019-08-21 18:00:00 23 16 Este 37 Este 0 -- -- 64
2019-08-21 17:00:00 22.2 13 Este 34 Este 0 -- -- 72
2019-08-21 16:00:00 22.2 14 Este 33 Este 0 -- -- 68
2019-08-21 15:00:00 22.1 14 Este 35 Este 0 -- -- 66
2019-08-21 14:00:00 23.4 14 Este 37 Sudeste 0 -- -- 62
2019-08-21 13:00:00 22.7 21 Este 36 Nordeste 0 -- -- 65
2019-08-21 12:00:00 24.2 14 Este 32 Nordeste 0 -- -- 58
2019-08-21 11:00:00 22.7 15 Este 33 Este 0 -- -- 62
2019-08-21 10:00:00 21.1 15 Este 40 Este 0 -- -- 71
2019-08-21 09:00:00 20.2 14 Este 31 Este 0 -- -- 77
2019-08-21 08:00:00 19.5 12 Este 29 Este 0 -- -- 79
2019-08-21 07:00:00 19.4 11 Este 29 Nordeste 0 -- -- 78
2019-08-21 06:00:00 20 13 Este 30 Este 0 -- -- 77
2019-08-21 05:00:00 19.9 11 Este 28 Este 0 -- -- 78
2019-08-21 04:00:00 20 13 Este 36 Nordeste 0 -- -- 77
2019-08-21 03:00:00 20.1 12 Este 39 Este 0 -- -- 76
2019-08-21 02:00:00 20.1 15 Este 41 Este 0 -- -- 74
2019-08-21 01:00:00 20.1 17 Este 42 Este 0 -- -- 73
2019-08-21 00:00:00 20.1 16 Este 40 Este 0 -- -- 70